Terminal Aerodrome Forecast
Issued by NWS Buffalo, NY

Home | Current Version | Previous Version | Text Only | Print | Product List | Glossary On
Versions: 1 2 3 4 5 6 7 8 9 10 11 12 13 14 15 16 17 18 19 20 21 22 23 24 25 26 27
092
FTUS41 KBUF 100309 AAA
TAFBUF
TAF AMD
KBUF 100309Z 1003/1024 23012G23KT 5SM -SN SCT015 OVC025
      TEMPO 1004/1007 2SM -SN BKN015
     FM101000 26015G24KT 3SM -SHSN OVC015
     FM101700 28013KT 2SM -SN OVC020=

USA.gov is the U.S. government's official web portal to all federal, state and local government web resources and services.